Time;durP1;ratioP1;P1;durP2;ratioP2;P2;SDS_P1;SDS_P2;PMS_P1;PMS_P2;Temp;Humidity;BMP_temperature;BMP_pressure;BME280_temperature;BME280_humidity;BME280_pressure;Samples;Min_cycle;Max_cycle;Signal;HPM_P1;HPM_P2
2022/03/08 00:02:04;;;;;;;6.20;2.90;;;;;;;-1.74;100.00;97203.63;4956907;28;20062;-75
2022/03/08 00:04:30;;;;;;;4.20;2.92;;;;;;;-1.71;100.00;97194.63;4943339;28;20023;-75
2022/03/08 00:06:55;;;;;;;7.57;3.85;;;;;;;-1.71;100.00;97197.25;4972746;28;20732;-76
2022/03/08 00:09:21;;;;;;;6.00;2.85;;;;;;;-1.77;100.00;97196.06;4943757;28;20411;-76
2022/03/08 00:11:46;;;;;;;8.55;4.22;;;;;;;-1.76;100.00;97186.38;4942890;28;20062;-76
2022/03/08 00:14:12;;;;;;;4.15;2.78;;;;;;;-1.80;100.00;97180.59;4939384;28;20136;-75
2022/03/08 00:16:38;;;;;;;8.15;4.45;;;;;;;-1.83;100.00;97185.34;4974677;28;20372;-76
2022/03/08 00:19:04;;;;;;;9.32;3.95;;;;;;;-1.85;100.00;97176.81;4939962;28;20089;-75
2022/03/08 00:21:30;;;;;;;8.27;4.07;;;;;;;-1.85;100.00;97176.81;4942083;28;20077;-75
2022/03/08 00:23:56;;;;;;;6.88;3.80;;;;;;;-1.85;100.00;97176.81;4955335;28;20031;-75
2022/03/08 00:26:22;;;;;;;6.78;3.67;;;;;;;-1.89;100.00;97175.47;4972359;28;20768;-75
2022/03/08 00:28:48;;;;;;;4.25;2.72;;;;;;;-1.93;100.00;97179.38;4955665;28;20467;-75
2022/03/08 00:31:13;;;;;;;6.93;2.83;;;;;;;-1.97;100.00;97177.06;4986605;28;20039;-75
2022/03/08 00:33:40;;;;;;;7.53;4.25;;;;;;;-1.99;100.00;97176.38;4940326;28;20046;-75
2022/03/08 00:36:12;;;;;;;3.83;2.27;;;;;;;-1.99;100.00;97181.63;1497272;28;10022639;-75
2022/03/08 00:38:44;;;;;;;8.32;4.68;;;;;;;-2.00;100.00;97177.38;3932016;28;10001119;-74
2022/03/08 00:41:09;;;;;;;9.68;4.95;;;;;;;-2.00;100.00;97174.75;4941634;28;20043;-75
2022/03/08 00:43:35;;;;;;;5.60;3.50;;;;;;;-2.00;100.00;97173.91;4939951;28;20023;-75
2022/03/08 00:46:00;;;;;;;6.57;4.07;;;;;;;-2.00;100.00;97172.13;4942096;28;21071;-74
2022/03/08 00:48:27;;;;;;;8.07;3.65;;;;;;;-1.96;100.00;97167.38;4971333;28;20042;-75
2022/03/08 00:50:52;;;;;;;9.73;5.40;;;;;;;-1.98;100.00;97164.09;4971612;28;20130;-75
2022/03/08 00:53:18;;;;;;;4.03;2.40;;;;;;;-1.99;100.00;97159.81;4940598;28;20054;-75
2022/03/08 00:55:44;;;;;;;12.75;5.15;;;;;;;-2.00;100.00;97159.00;4942410;28;20058;-75
2022/03/08 00:58:10;;;;;;;9.50;5.07;;;;;;;-2.00;100.00;97153.75;4970837;28;20146;-75
2022/03/08 01:00:37;;;;;;;6.68;4.35;;;;;;;-2.03;100.00;97159.28;4955164;28;20047;-75
2022/03/08 01:03:04;;;;;;;7.80;3.30;;;;;;;-2.04;100.00;97152.41;4938892;28;20035;-75
2022/03/08 01:05:31;;;;;;;4.57;3.03;;;;;;;-2.07;100.00;97139.59;4972305;28;20035;-75
2022/03/08 01:07:57;;;;;;;7.40;4.05;;;;;;;-2.09;100.00;97135.50;4972540;28;20050;-75
2022/03/08 01:10:24;;;;;;;11.30;4.55;;;;;;;-2.07;100.00;97138.78;4943926;28;20042;-76
2022/03/08 01:12:52;;;;;;;8.40;4.47;;;;;;;-2.06;100.00;97136.00;4940449;28;20058;-75
2022/03/08 01:15:19;;;;;;;9.15;4.75;;;;;;;-2.12;100.00;97128.75;4942993;28;20039;-76
2022/03/08 01:17:47;;;;;;;5.65;3.85;;;;;;;-2.12;100.00;97131.34;4974165;28;20794;-75
2022/03/08 01:20:13;;;;;;;7.05;4.00;;;;;;;-2.15;100.00;97131.69;4972293;28;20041;-75
2022/03/08 01:22:39;;;;;;;6.20;3.47;;;;;;;-2.16;100.00;97130.03;4956692;28;20050;-75
2022/03/08 01:25:06;;;;;;;7.22;4.47;;;;;;;-2.19;100.00;97140.00;4989240;28;20035;-75
2022/03/08 01:27:32;;;;;;;6.20;3.53;;;;;;;-2.14;100.00;97146.44;4942892;28;20059;-75
2022/03/08 01:29:58;;;;;;;11.52;5.13;;;;;;;-2.17;100.00;97141.50;4942084;28;20035;-75
2022/03/08 01:32:23;;;;;;;5.68;3.13;;;;;;;-2.21;100.00;97129.66;4954657;28;20031;-75
2022/03/08 01:34:49;;;;;;;6.43;4.00;;;;;;;-2.19;100.00;97135.56;4933815;29;20039;-75
2022/03/08 01:37:15;;;;;;;7.82;3.83;;;;;;;-2.21;100.00;97134.91;4941006;28;20097;-76
2022/03/08 01:39:41;;;;;;;9.30;4.75;;;;;;;-2.22;100.00;97132.44;4973363;28;20035;-75
2022/03/08 01:42:12;;;;;;;9.68;4.22;;;;;;;-2.27;100.00;97117.97;4972942;28;20027;-75
2022/03/08 01:44:44;;;;;;;9.68;5.65;;;;;;;-2.23;100.00;97117.69;4988937;28;20019;-75
2022/03/08 01:47:14;;;;;;;5.65;3.42;;;;;;;-2.23;100.00;97122.94;4971797;28;20043;-75
2022/03/08 01:49:40;;;;;;;4.53;2.72;;;;;;;-2.26;100.00;97126.66;4973683;28;20043;-75
2022/03/08 01:52:07;;;;;;;6.50;3.60;;;;;;;-2.25;100.00;97126.53;4942097;28;20617;-75
2022/03/08 01:54:32;;;;;;;7.35;3.53;;;;;;;-2.28;100.00;97129.44;4972900;28;20047;-75
2022/03/08 01:56:58;;;;;;;8.02;4.03;;;;;;;-2.33;100.00;97131.72;4955175;28;20035;-75
2022/03/08 01:59:24;;;;;;;9.27;4.55;;;;;;;-2.37;100.00;97129.53;4957095;28;20031;-76
2022/03/08 02:01:49;;;;;;;12.65;5.13;;;;;;;-2.39;100.00;97128.88;4942551;28;20129;-75
2022/03/08 02:04:15;;;;;;;4.35;2.67;;;;;;;-2.41;100.00;97128.16;4939627;28;20039;-76
2022/03/08 02:06:44;;;;;;;9.52;4.97;;;;;;;-2.42;100.00;97123.91;4971102;28;20070;-76
2022/03/08 02:09:10;;;;;;;7.72;4.30;;;;;;;-2.43;100.00;97119.66;4969581;28;20662;-76
2022/03/08 02:11:36;;;;;;;6.90;2.88;;;;;;;-2.47;100.00;97123.56;4939805;28;20046;-75
2022/03/08 02:14:02;;;;;;;9.55;4.47;;;;;;;-2.54;100.00;97116.28;4970222;28;20047;-76
2022/03/08 02:16:28;;;;;;;5.72;3.53;;;;;;;-2.56;100.00;97120.88;4941339;28;20054;-76
2022/03/08 02:18:53;;;;;;;6.40;3.75;;;;;;;-2.55;100.00;97109.41;4967185;28;20039;-76
2022/03/08 02:21:19;;;;;;;11.85;4.93;;;;;;;-2.53;100.00;97112.69;4971835;28;20373;-76
2022/03/08 02:23:44;;;;;;;28.35;4.35;;;;;;;-2.53;100.00;97111.88;4940360;28;20031;-76
2022/03/08 02:26:10;;;;;;;9.52;4.63;;;;;;;-2.58;100.00;97101.00;4939574;28;20640;-76
2022/03/08 02:28:35;;;;;;;4.80;2.67;;;;;;;-2.61;100.00;97099.53;4971085;28;20140;-76
2022/03/08 02:31:01;;;;;;;6.88;4.18;;;;;;;-2.61;100.00;97091.66;4938145;28;20043;-76
2022/03/08 02:33:26;;;;;;;12.07;4.95;;;;;;;-2.61;100.00;97089.03;4937499;28;20115;-75
2022/03/08 02:35:52;;;;;;;7.72;3.92;;;;;;;-2.64;100.00;97094.59;4937777;28;20895;-74
2022/03/08 02:38:17;;;;;;;11.27;4.32;;;;;;;-2.64;100.00;97080.66;4954505;28;20019;-75
2022/03/08 02:40:43;;;;;;;9.15;5.40;;;;;;;-2.65;100.00;97079.00;4939648;28;20058;-75
2022/03/08 02:43:11;;;;;;;4.47;2.53;;;;;;;-2.71;100.00;97064.72;4954363;28;20027;-75
2022/03/08 02:45:37;;;;;;;7.68;3.85;;;;;;;-2.70;100.00;97071.59;4941475;28;20626;-75
2022/03/08 02:48:04;;;;;;;9.95;5.05;;;;;;;-2.68;100.00;97076.69;4938767;28;20101;-77
2022/03/08 02:50:29;;;;;;;10.63;5.55;;;;;;;-2.72;100.00;97077.94;4940392;28;20059;-75
2022/03/08 02:52:56;;;;;;;6.85;4.30;;;;;;;-2.74;100.00;97079.91;4955973;28;20137;-75
2022/03/08 02:55:25;;;;;;;11.10;5.07;;;;;;;-2.75;100.00;97080.88;4973828;28;20119;-75
2022/03/08 02:57:52;;;;;;;8.52;4.53;;;;;;;-2.79;100.00;97083.00;4942825;28;20040;-75
2022/03/08 03:00:20;;;;;;;7.30;3.80;;;;;;;-2.79;100.00;97074.31;4942783;28;20035;-75
2022/03/08 03:02:47;;;;;;;11.35;6.28;;;;;;;-2.76;100.00;97074.00;4942503;28;20035;-76
2022/03/08 03:05:13;;;;;;;7.95;3.40;;;;;;;-2.76;100.00;97080.06;4942659;28;20047;-76
2022/03/08 03:07:39;;;;;;;10.65;5.25;;;;;;;-2.73;100.00;97069.28;4976063;28;20439;-75
2022/03/08 03:10:10;;;;;;;11.23;4.15;;;;;;;-2.77;100.00;97075.78;4941434;28;20082;-75
2022/03/08 03:12:36;;;;;;;11.50;5.65;;;;;;;-2.79;100.00;97067.28;4943661;28;20772;-76
2022/03/08 03:15:04;;;;;;;11.65;4.82;;;;;;;-2.77;100.00;97065.31;4941966;28;20031;-75
2022/03/08 03:17:30;;;;;;;9.90;5.00;;;;;;;-2.81;100.00;97059.53;4987649;28;20051;-75
2022/03/08 03:19:55;;;;;;;13.25;4.97;;;;;;;-2.81;100.00;97062.16;4971253;28;20035;-76
2022/03/08 03:22:21;;;;;;;8.00;4.38;;;;;;;-2.83;100.00;97060.66;4957185;28;20097;-76
2022/03/08 03:24:46;;;;;;;8.68;4.28;;;;;;;-2.83;100.00;97058.06;4940969;28;20044;-76
2022/03/08 03:27:11;;;;;;;9.65;3.97;;;;;;;-2.83;100.00;97065.91;4940113;28;20775;-75
2022/03/08 03:29:37;;;;;;;6.20;3.60;;;;;;;-2.84;100.00;97057.22;4941620;28;20114;-74
2022/03/08 03:32:03;;;;;;;11.68;5.93;;;;;;;-2.85;100.00;97067.88;4971347;28;20577;-75
2022/03/08 03:34:28;;;;;;;6.72;3.80;;;;;;;-2.87;100.00;97062.78;4941153;28;20038;-76
2022/03/08 03:36:54;;;;;;;8.52;4.65;;;;;;;-2.89;100.00;97066.50;4943182;28;20414;-75
2022/03/08 03:39:19;;;;;;;4.43;2.70;;;;;;;-2.88;100.00;97065.53;4973768;28;20035;-76
2022/03/08 03:41:45;;;;;;;9.73;4.90;;;;;;;-2.91;100.00;97058.81;4942849;28;20055;-76
2022/03/08 03:44:11;;;;;;;14.60;6.28;;;;;;;-2.92;100.00;97056.34;4969901;28;20031;-75
2022/03/08 03:46:36;;;;;;;8.48;4.18;;;;;;;-2.91;100.00;97061.41;4956212;28;20128;-75
2022/03/08 03:49:02;;;;;;;10.75;5.75;;;;;;;-2.86;100.00;97056.56;4941490;28;20090;-75
2022/03/08 03:51:28;;;;;;;13.30;4.53;;;;;;;-2.81;100.00;97050.84;4941824;28;20155;-75
2022/03/08 03:53:54;;;;;;;20.70;3.78;;;;;;;-2.79;100.00;97062.03;4940682;28;20875;-75
2022/03/08 03:56:19;;;;;;;10.07;5.07;;;;;;;-2.81;100.00;97059.53;4973338;28;20039;-75
2022/03/08 03:58:45;;;;;;;13.15;4.40;;;;;;;-2.82;100.00;97057.91;4940200;28;20414;-75
2022/03/08 04:01:10;;;;;;;7.78;3.03;;;;;;;-2.77;100.00;97051.41;4942234;28;20685;-75
2022/03/08 04:03:36;;;;;;;6.72;4.10;;;;;;;-2.72;100.00;97043.88;4941235;28;20226;-75
2022/03/08 04:06:01;;;;;;;9.93;3.35;;;;;;;-2.74;100.00;97054.53;4972885;28;20034;-74
2022/03/08 04:08:27;;;;;;;12.93;3.63;;;;;;;-2.78;100.00;97050.56;4941236;28;20715;-75
2022/03/08 04:10:52;;;;;;;14.05;5.57;;;;;;;-2.80;100.00;97047.28;4943373;28;20070;-75
2022/03/08 04:13:18;;;;;;;6.47;3.85;;;;;;;-2.78;100.00;97036.66;4940794;28;20031;-75
2022/03/08 04:15:45;;;;;;;10.98;4.78;;;;;;;-2.78;100.00;97037.47;4974100;28;20035;-74
2022/03/08 04:18:11;;;;;;;8.95;5.18;;;;;;;-2.77;100.00;97038.31;4940175;28;20390;-74
2022/03/08 04:20:36;;;;;;;9.98;4.68;;;;;;;-2.84;100.00;97035.44;4942721;28;20129;-75
2022/03/08 04:23:02;;;;;;;9.48;4.32;;;;;;;-2.87;100.00;97033.16;4942381;28;20059;-75
2022/03/08 04:25:28;;;;;;;13.90;4.88;;;;;;;-2.91;100.00;97030.00;4941879;28;20106;-75
2022/03/08 04:27:53;;;;;;;8.35;4.00;;;;;;;-2.86;100.00;97040.03;4970655;28;20034;-75
2022/03/08 04:30:19;;;;;;;13.35;5.30;;;;;;;-2.91;100.00;97037.03;4971210;28;20071;-75
2022/03/08 04:32:45;;;;;;;6.53;3.80;;;;;;;-2.88;100.00;97039.34;4941535;28;20054;-74
2022/03/08 04:35:11;;;;;;;11.25;5.18;;;;;;;-2.88;100.00;97031.47;4970907;28;20035;-75
2022/03/08 04:37:37;;;;;;;8.15;4.35;;;;;;;-2.86;100.00;97032.16;4972814;28;20038;-75
2022/03/08 04:40:06;;;;;;;4.53;2.67;;;;;;;-2.91;100.00;97019.50;4970445;28;20766;-75
2022/03/08 04:42:32;;;;;;;7.75;4.32;;;;;;;-2.91;100.00;97021.31;4941829;28;20574;-75
2022/03/08 04:44:58;;;;;;;6.68;3.22;;;;;;;-2.92;100.00;97022.28;4942222;28;20035;-76
2022/03/08 04:47:23;;;;;;;7.60;3.95;;;;;;;-2.95;100.00;97022.59;4941786;28;20122;-75
2022/03/08 04:49:49;;;;;;;11.52;5.55;;;;;;;-2.92;100.00;97024.91;4942289;28;20043;-75
2022/03/08 04:52:14;;;;;;;7.10;4.28;;;;;;;-2.95;100.00;97014.75;4940949;28;20098;-76
2022/03/08 04:54:40;;;;;;;11.88;6.05;;;;;;;-2.94;100.00;97021.63;4942048;28;20031;-75
2022/03/08 04:57:06;;;;;;;8.38;5.05;;;;;;;-2.98;100.00;97025.50;4939195;28;20049;-74
2022/03/08 04:59:32;;;;;;;12.48;6.28;;;;;;;-2.90;100.00;97023.78;4972577;28;20158;-75
2022/03/08 05:01:57;;;;;;;8.07;4.93;;;;;;;-2.91;100.00;97029.16;4970427;28;20078;-75
2022/03/08 05:04:23;;;;;;;11.32;6.15;;;;;;;-2.90;100.00;97029.00;4972505;28;20067;-75
2022/03/08 05:06:49;;;;;;;7.85;4.03;;;;;;;-2.88;100.00;97032.31;4942137;28;20077;-75
2022/03/08 05:09:15;;;;;;;12.73;5.18;;;;;;;-2.87;100.00;97028.72;4953086;28;20043;-75
2022/03/08 05:11:40;;;;;;;9.68;4.40;;;;;;;-2.85;100.00;97021.53;4940032;28;20042;-75
2022/03/08 05:14:06;;;;;;;8.45;5.22;;;;;;;-2.88;100.00;97026.25;4969442;28;20471;-76
2022/03/08 05:16:32;;;;;;;8.60;4.70;;;;;;;-2.85;100.00;97024.16;4955398;28;20030;-75
2022/03/08 05:18:57;;;;;;;8.32;4.15;;;;;;;-2.85;100.00;97025.97;4939722;28;20038;-74
2022/03/08 05:21:23;;;;;;;9.32;4.22;;;;;;;-2.89;100.00;97020.19;4940349;28;20065;-76
2022/03/08 05:23:49;;;;;;;7.47;3.88;;;;;;;-2.86;100.00;97019.06;4941087;28;20035;-74
2022/03/08 05:26:15;;;;;;;8.48;4.68;;;;;;;-2.88;100.00;97015.75;4940063;28;20027;-75
2022/03/08 05:28:42;;;;;;;12.43;5.22;;;;;;;-2.88;100.00;97016.63;4942097;28;20046;-74
2022/03/08 05:31:13;;;;;;;8.07;4.32;;;;;;;-2.89;100.00;97029.84;4967326;28;20622;-75
2022/03/08 05:33:39;;;;;;;11.02;6.07;;;;;;;-2.91;100.00;97034.41;4939582;28;20034;-74
2022/03/08 05:36:05;;;;;;;5.32;3.03;;;;;;;-2.93;100.00;97033.75;4940653;28;20034;-74
2022/03/08 05:38:31;;;;;;;14.80;6.22;;;;;;;-2.93;100.00;97033.75;4940988;28;20811;-74
2022/03/08 05:40:56;;;;;;;12.15;6.10;;;;;;;-2.82;100.00;97028.25;4938036;28;20042;-75
2022/03/08 05:43:22;;;;;;;10.38;6.35;;;;;;;-2.85;100.00;97039.06;4940055;28;20613;-76
2022/03/08 05:45:48;;;;;;;8.30;4.15;;;;;;;-2.88;100.00;97031.47;4942241;28;20677;-76
2022/03/08 05:48:14;;;;;;;6.45;3.75;;;;;;;-2.87;100.00;97026.13;4971965;28;20479;-75
2022/03/08 05:50:39;;;;;;;12.25;5.15;;;;;;;-2.87;100.00;97033.97;4973247;28;20039;-74
2022/03/08 05:53:10;;;;;;;7.63;4.78;;;;;;;-2.81;100.00;97041.19;4944319;28;20035;-76
2022/03/08 05:55:48;;;;;;;6.38;3.63;;;;;;;-2.74;100.00;97043.22;4958111;28;20753;-75
2022/03/08 05:58:14;;;;;;;6.28;3.38;;;;;;;-2.71;100.00;97035.91;4972739;28;20031;-75
2022/03/08 06:00:41;;;;;;;8.50;4.22;;;;;;;-2.70;100.00;97039.34;4971777;28;20039;-75
2022/03/08 06:03:07;;;;;;;7.80;3.85;;;;;;;-2.71;100.00;97042.94;4974675;28;20094;-75
2022/03/08 06:05:33;;;;;;;10.25;4.53;;;;;;;-2.67;100.00;97047.72;4941580;28;20032;-75
2022/03/08 06:07:58;;;;;;;11.15;5.28;;;;;;;-2.70;100.00;97044.59;4934010;28;20042;-75
2022/03/08 06:10:24;;;;;;;7.57;3.60;;;;;;;-2.64;100.00;97043.97;4943572;28;20050;-78
2022/03/08 06:12:50;;;;;;;7.78;3.88;;;;;;;-2.57;100.00;97053.72;4946519;28;20067;-77
2022/03/08 06:15:15;;;;;;;10.10;5.53;;;;;;;-2.58;100.00;97057.28;4959121;28;20031;-76
2022/03/08 06:17:47;;;;;;;9.43;4.95;;;;;;;-2.54;100.00;97057.81;4978839;28;20158;-77
2022/03/08 06:20:14;;;;;;;7.15;3.33;;;;;;;-2.50;100.00;97060.94;4943245;28;20035;-77
2022/03/08 06:22:40;;;;;;;7.53;4.18;;;;;;;-2.46;100.00;97054.44;4958297;28;20055;-77
2022/03/08 06:25:07;;;;;;;8.80;4.15;;;;;;;-2.53;100.00;97055.03;4946095;28;20050;-77
2022/03/08 06:27:33;;;;;;;9.23;4.50;;;;;;;-2.47;100.00;97056.22;4944987;28;20047;-77
2022/03/08 06:30:05;;;;;;;9.80;5.40;;;;;;;-2.44;100.00;97060.34;4976973;28;20079;-81
2022/03/08 06:32:30;;;;;;;5.88;3.42;;;;;;;-2.40;100.00;97061.69;4974293;28;20047;-76
2022/03/08 06:34:56;;;;;;;6.70;3.83;;;;;;;-2.39;100.00;97058.91;4945254;28;20385;-80
2022/03/08 06:37:22;;;;;;;9.88;4.13;;;;;;;-2.35;100.00;97062.03;4977572;28;20050;-76
2022/03/08 06:39:48;;;;;;;5.85;3.42;;;;;;;-2.35;100.00;97060.22;4957861;28;20105;-75
2022/03/08 06:42:17;;;;;;;8.15;4.85;;;;;;;-2.28;100.00;97060.44;4945313;28;20043;-77
2022/03/08 06:44:51;;;;;;;9.15;5.03;;;;;;;-2.32;100.00;97065.19;4945640;28;20058;-78
2022/03/08 06:47:17;;;;;;;8.60;4.53;;;;;;;-2.29;100.00;97066.66;4944756;29;20050;-76
2022/03/08 06:49:43;;;;;;;8.07;4.03;;;;;;;-2.24;100.00;97061.81;4962007;28;20043;-78
2022/03/08 06:52:10;;;;;;;10.23;4.85;;;;;;;-2.22;100.00;97062.47;4976404;28;20035;-77
2022/03/08 06:54:36;;;;;;;9.18;5.30;;;;;;;-2.15;100.00;97054.81;4979565;28;20031;-77
2022/03/08 06:57:03;;;;;;;11.68;5.43;;;;;;;-2.12;100.00;97039.56;4948198;28;20078;-77
2022/03/08 06:59:29;;;;;;;10.25;5.40;;;;;;;-2.03;100.00;97062.25;4960989;28;20043;-78
2022/03/08 07:01:56;;;;;;;10.40;4.47;;;;;;;-2.02;100.00;97050.81;4947119;28;20053;-78
2022/03/08 07:04:22;;;;;;;6.97;4.50;;;;;;;-1.99;100.00;97050.47;4977476;28;20059;-78
2022/03/08 07:06:48;;;;;;;6.70;3.25;;;;;;;-1.91;100.00;97060.19;4947211;28;20039;-77
2022/03/08 07:09:14;;;;;;;13.23;5.00;;;;;;;-1.87;100.00;97058.06;4946676;28;20038;-78
2022/03/08 07:11:40;;;;;;;8.85;4.45;;;;;;;-1.76;100.00;97065.69;4945281;28;20050;-78
2022/03/08 07:14:07;;;;;;;10.45;5.40;;;;;;;-1.70;100.00;97065.06;4957352;28;20082;-78
2022/03/08 07:16:33;;;;;;;7.15;3.08;;;;;;;-1.65;100.00;97062.78;4948883;28;20083;-78
2022/03/08 07:18:59;;;;;;;6.75;3.90;;;;;;;-1.58;100.00;97063.78;4944733;28;20062;-78
2022/03/08 07:21:24;;;;;;;6.93;3.10;;;;;;;-1.52;100.00;97071.03;4994951;28;20055;-79
2022/03/08 07:23:50;;;;;;;9.80;4.60;;;;;;;-1.47;100.00;97074.03;4947320;28;20039;-78
2022/03/08 07:26:18;;;;;;;8.00;4.13;;;;;;;-1.44;100.00;97068.44;4976031;28;20596;-78
2022/03/08 07:28:44;;;;;;;12.98;5.35;;;;;;;-1.40;100.00;97071.59;4979687;28;20028;-78
2022/03/08 07:31:12;;;;;;;5.57;3.45;;;;;;;-1.34;100.00;97070.09;4947016;28;20053;-78
2022/03/08 07:33:38;;;;;;;8.35;4.22;;;;;;;-1.29;100.00;97073.09;4978962;28;20042;-79
2022/03/08 07:36:04;;;;;;;9.75;5.28;;;;;;;-1.23;100.00;97060.16;4977760;28;20415;-79
2022/03/08 07:38:30;;;;;;;9.85;4.55;;;;;;;-1.14;100.00;97056.56;4984211;28;20057;-80
2022/03/08 07:40:58;;;;;;;6.03;3.35;;;;;;;-1.05;100.00;97053.94;4983813;28;20479;-79
2022/03/08 07:43:24;;;;;;;9.20;4.82;;;;;;;-1.00;100.00;97052.50;4961688;28;20423;-78
2022/03/08 07:45:50;;;;;;;9.05;4.72;;;;;;;-0.92;100.00;97060.38;4981470;28;20043;-79
2022/03/08 07:48:18;;;;;;;5.22;3.42;;;;;;;-0.85;100.00;97063.19;4966079;28;20043;-79
2022/03/08 07:50:45;;;;;;;7.82;4.18;;;;;;;-0.77;100.00;97062.38;4951902;28;20119;-80
2022/03/08 07:53:11;;;;;;;6.10;3.50;;;;;;;-0.69;100.00;97060.56;4981917;28;20042;-78
2022/03/08 07:55:37;;;;;;;7.50;4.55;;;;;;;-0.64;100.00;97065.31;4982284;28;20134;-79
2022/03/08 07:58:04;;;;;;;11.82;5.40;;;;;;;-0.58;100.00;97057.63;4982507;28;20098;-78
2022/03/08 08:00:32;;;;;;;4.85;3.63;;;;;;;-0.51;100.00;97064.84;4980997;28;20027;-78
2022/03/08 08:02:59;;;;;;;13.73;5.60;;;;;;;-0.44;100.00;97061.41;4951639;28;20027;-78
2022/03/08 08:05:27;;;;;;;9.73;5.13;;;;;;;-0.36;100.00;97063.19;4980048;28;20039;-79
2022/03/08 08:07:53;;;;;;;13.05;5.70;;;;;;;-0.27;100.00;97067.47;4966087;28;20637;-79
2022/03/08 08:10:19;;;;;;;7.13;3.92;;;;;;;-0.21;100.00;97072.06;4944714;28;20039;-78
2022/03/08 08:12:45;;;;;;;10.25;4.55;;;;;;;-0.12;100.00;97063.19;4974916;28;20082;-78
2022/03/08 08:15:11;;;;;;;13.07;5.43;;;;;;;-0.05;100.00;97079.94;4944423;28;20066;-78
2022/03/08 08:17:37;;;;;;;11.07;4.90;;;;;;;-0.02;100.00;97065.63;4957497;28;20477;-78
2022/03/08 08:20:03;;;;;;;17.30;5.95;;;;;;;0.07;100.00;97075.13;4975634;28;20043;-78
2022/03/08 08:22:29;;;;;;;10.45;6.10;;;;;;;0.16;100.00;97074.16;4975606;28;20741;-78
2022/03/08 08:24:54;;;;;;;11.15;5.38;;;;;;;0.21;100.00;97079.72;4959326;28;20110;-78
2022/03/08 08:27:20;;;;;;;7.20;4.68;;;;;;;0.26;100.00;97071.31;4942356;28;20089;-79
2022/03/08 08:29:45;;;;;;;7.78;4.80;;;;;;;0.32;100.00;97062.75;4945443;28;20039;-79
2022/03/08 08:32:11;;;;;;;7.70;4.60;;;;;;;0.36;100.00;97066.69;4942525;28;20600;-76
2022/03/08 08:34:36;;;;;;;11.38;4.28;;;;;;;0.39;100.00;97069.00;4974494;28;20043;-76
2022/03/08 08:37:02;;;;;;;10.40;5.25;;;;;;;0.47;100.00;97073.41;4976745;28;20073;-75
2022/03/08 08:39:27;;;;;;;10.35;6.57;;;;;;;0.50;100.00;97062.53;4945964;28;20574;-77
2022/03/08 08:41:53;;;;;;;9.50;5.63;;;;;;;0.64;100.00;97056.53;4974231;28;20039;-80
2022/03/08 08:44:21;;;;;;;8.27;5.40;;;;;;;0.71;100.00;97070.69;4971435;28;20085;-79
2022/03/08 08:46:47;;;;;;;9.98;4.47;;;;;;;0.80;100.00;97067.00;4970928;28;20117;-73
2022/03/08 08:49:13;;;;;;;15.48;5.60;;;;;;;0.95;100.00;97066.28;4952491;28;20054;-74
2022/03/08 08:51:38;;;;;;;13.80;5.40;;;;;;;1.06;100.00;97063.22;4970809;28;20035;-75
2022/03/08 08:54:04;;;;;;;7.20;4.18;;;;;;;1.05;100.00;97046.59;4940122;28;20051;-75
2022/03/08 08:56:30;;;;;;;11.00;6.00;;;;;;;0.97;100.00;97072.19;4972086;28;20067;-75
2022/03/08 08:58:55;;;;;;;11.95;5.85;;;;;;;1.05;100.00;97061.59;4970349;28;20777;-74
2022/03/08 09:01:21;;;;;;;10.68;4.88;;;;;;;1.24;100.00;97065.59;4954079;28;20658;-75
2022/03/08 09:03:47;;;;;;;16.25;5.70;;;;;;;1.35;100.00;97062.56;4972101;28;20049;-75
2022/03/08 09:06:13;;;;;;;9.23;4.30;;;;;;;1.36;100.00;97061.56;4940871;28;20035;-76
2022/03/08 09:08:39;;;;;;;9.27;5.25;;;;;;;1.35;98.17;97062.56;4942054;28;20074;-76
2022/03/08 09:11:08;;;;;;;11.75;4.53;;;;;;;1.43;98.68;97070.41;4938983;28;20031;-74
2022/03/08 09:13:34;;;;;;;11.75;5.40;;;;;;;1.43;98.04;97057.22;4940512;28;20663;-75
2022/03/08 09:15:59;;;;;;;9.73;4.93;;;;;;;1.46;98.74;97058.69;4941948;28;20046;-75
2022/03/08 09:18:25;;;;;;;9.60;5.18;;;;;;;1.51;98.46;97062.44;4940157;28;20035;-75
2022/03/08 09:20:50;;;;;;;6.18;3.72;;;;;;;1.65;97.76;97061.66;4941269;28;20031;-77
2022/03/08 09:23:16;;;;;;;9.18;4.43;;;;;;;1.67;98.12;97058.84;4940600;28;20042;-75
2022/03/08 09:25:41;;;;;;;8.85;5.15;;;;;;;1.85;96.95;97069.88;4940839;28;20511;-74
2022/03/08 09:28:07;;;;;;;6.97;4.13;;;;;;;1.87;95.13;97062.63;4950509;28;20626;-75
2022/03/08 09:30:35;;;;;;;11.45;5.25;;;;;;;1.90;94.48;97059.63;4946104;28;20039;-76
2022/03/08 09:33:01;;;;;;;8.32;4.03;;;;;;;2.15;93.12;97054.91;4936606;28;20070;-75
2022/03/08 09:35:28;;;;;;;8.18;5.28;;;;;;;2.07;90.91;97057.66;4941704;28;20086;-78
2022/03/08 09:37:54;;;;;;;10.20;3.83;;;;;;;2.07;92.09;97056.81;4975796;28;20098;-79
2022/03/08 09:40:21;;;;;;;7.65;4.40;;;;;;;2.25;92.15;97052.00;4972841;28;20055;-75
2022/03/08 09:42:49;;;;;;;6.75;3.97;;;;;;;2.38;90.58;97059.31;4941319;28;20043;-75
2022/03/08 09:45:15;;;;;;;9.73;4.80;;;;;;;2.63;91.12;97050.09;4940051;28;20039;-76
2022/03/08 09:47:41;;;;;;;10.85;5.30;;;;;;;2.72;88.56;97051.66;4940379;28;20039;-75
2022/03/08 09:50:08;;;;;;;11.40;4.80;;;;;;;2.76;86.97;97052.91;4987812;28;20050;-74
2022/03/08 09:52:36;;;;;;;7.45;3.72;;;;;;;2.78;87.28;97039.50;4941924;28;20090;-74
2022/03/08 09:55:04;;;;;;;8.15;4.60;;;;;;;2.68;86.19;97049.53;4940921;28;20035;-78
2022/03/08 09:57:29;;;;;;;6.60;4.10;;;;;;;2.85;82.88;97044.88;4943085;28;20848;-75
2022/03/08 09:59:55;;;;;;;9.55;5.05;;;;;;;2.78;84.80;97050.88;4939927;28;20046;-76
2022/03/08 10:02:22;;;;;;;6.95;4.30;;;;;;;2.82;84.86;97046.06;4933134;28;20061;-75
2022/03/08 10:05:04;;;;;;;8.35;4.32;;;;;;;3.23;83.54;97048.97;4940943;28;20043;-76
2022/03/08 10:07:30;;;;;;;9.27;5.03;;;;;;;3.33;81.50;97038.06;4941567;28;20057;-74
2022/03/08 10:09:59;;;;;;;17.42;4.57;;;;;;;3.49;81.00;97051.03;4941123;28;20039;-76
2022/03/08 10:12:26;;;;;;;6.78;4.22;;;;;;;3.82;81.37;97045.22;4940704;28;20031;-75
2022/03/08 10:14:51;;;;;;;6.78;3.67;;;;;;;3.80;78.70;97018.94;4956431;28;20043;-76
2022/03/08 10:17:37;;;;;;;12.00;6.15;;;;;;;4.16;74.72;97032.03;4939647;28;20046;-77
2022/03/08 10:20:05;;;;;;;7.38;4.65;;;;;;;4.68;72.59;97036.00;4954545;28;20067;-77
2022/03/08 10:22:36;;;;;;;5.88;4.22;;;;;;;5.31;67.55;97031.31;4972363;28;20050;-77
2022/03/08 10:25:29;;;;;;;10.23;4.57;;;;;;;6.34;56.53;97014.97;4974149;28;20043;-82
2022/03/08 10:27:55;;;;;;;10.02;5.20;;;;;;;7.74;50.37;97015.94;4942127;28;20083;-76
2022/03/08 10:30:24;;;;;;;12.75;6.32;;;;;;;8.95;45.90;97020.72;4939797;28;20035;-76
2022/03/08 10:32:53;;;;;;;7.93;5.47;;;;;;;9.43;41.33;97017.19;4970052;28;20035;-78
2022/03/08 10:35:26;;;;;;;11.68;5.45;;;;;;;9.73;41.97;97017.16;4956137;28;20035;-76
2022/03/08 10:37:55;;;;;;;9.35;4.97;;;;;;;9.54;41.34;97011.06;4941401;28;20661;-81
2022/03/08 10:40:32;;;;;;;13.10;6.88;;;;;;;9.83;40.69;97001.38;4934573;28;20031;-76
2022/03/08 10:43:00;;;;;;;14.02;5.65;;;;;;;11.52;37.84;96989.69;4939760;28;20049;-76
2022/03/08 10:45:28;;;;;;;8.88;5.38;;;;;;;11.84;36.16;97001.53;4939549;28;20379;-75
2022/03/08 10:47:54;;;;;;;10.20;5.05;;;;;;;10.94;37.80;97001.44;4937603;28;20047;-76
2022/03/08 10:50:30;;;;;;;9.07;5.13;;;;;;;13.00;34.46;96982.78;4971117;28;20043;-76
2022/03/08 10:52:58;;;;;;;7.57;4.40;;;;;;;13.49;32.62;96987.34;4938968;28;20046;-77
2022/03/08 10:55:25;;;;;;;15.40;5.28;;;;;;;11.37;34.58;96985.69;4940283;28;20031;-76
2022/03/08 10:57:56;;;;;;;7.88;4.25;;;;;;;11.66;34.37;96977.59;4939788;28;20114;-77
2022/03/08 11:00:27;;;;;;;7.30;3.65;;;;;;;10.99;34.69;96980.13;4939525;28;20554;-77
2022/03/08 11:02:55;;;;;;;8.43;3.75;;;;;;;12.21;32.55;96974.19;4970402;28;20036;-76
2022/03/08 11:05:22;;;;;;;5.00;3.03;;;;;;;11.14;33.37;96975.88;4957811;28;20069;-77
2022/03/08 11:07:49;;;;;;;6.07;4.00;;;;;;;12.60;31.60;96983.06;4941270;28;20035;-77
2022/03/08 11:10:15;;;;;;;8.52;3.72;;;;;;;12.12;31.00;96976.47;4946858;28;20115;-77
2022/03/08 11:12:41;;;;;;;9.05;4.00;;;;;;;13.27;29.20;96971.25;4943457;28;20047;-76
2022/03/08 11:15:09;;;;;;;5.35;3.65;;;;;;;13.05;29.72;96972.06;4956023;28;20046;-77
2022/03/08 11:17:38;;;;;;;4.95;3.42;;;;;;;13.19;30.06;96958.25;4258653;28;9999802;-77
2022/03/08 11:20:06;;;;;;;6.63;3.78;;;;;;;15.61;26.48;96956.53;4955892;28;20031;-77
2022/03/08 11:22:32;;;;;;;6.60;3.50;;;;;;;14.49;26.78;96961.53;4938488;28;20507;-77
2022/03/08 11:24:58;;;;;;;5.03;2.85;;;;;;;15.19;27.93;96957.50;4941331;28;20046;-75